Главная страница
METAR-TAF:

METAR-TAF

Аэропорты :

Бейрут, Ливан

широта: 33-49N, долгота: 035-29E, высота над уровнем моря: 29 м

Текущие метеонаблюдения

Эта сводка был подготовлена 1 час и 9 минут назад, в 10:00 UTC
Ветер 21 Узел от юго-западный
Температура 20°C
Влажность 49%
Давление 1016 hPa
Видимость 10 км и более
Рассеянная облачность на высоте 2600 фута

METAR: OLBA 191000Z 22021KT 9999 BKN026 20/09 Q1016 NOSIG

Время: 13:09 (11:09 UTC)

Прогноз

Эта сводка был подготовлена 7 часа и 9 минут назад, в 04:00 UTC
Прогноз действительный с 19-го 06 UTC до 20-го 12 UTC
Ветер 13 Узел от южный-юго-западный
Видимость: 8000 м
Рассеянная облачность на высоте 3000 фута
временами
С 19-го 09 UTC до 20-го 12 UTC
Ветер 10 Узел от южный-юго-западный с порывами до 25 Узел
Видимость: 5000 м
небольшая облачность на высоте 2000 фута, Кучево-дождевые.
Рассеянная облачность на высоте 2300 фута
гроза, дождь

TAF: OLBA 190400Z 1906/2012 20013KT 8000 BKN030 TEMPO 1909/2012 20010G25KT 5000 TSRA FEW020CB BKN023

Метеонаблюдения и прогнозы для более 4000 аэропортов (сводки METAR и TAF).

Имеющиеся станции представлены на карте желтыми и красными точками.

Чтобы увидеть название станции, наведите на нее мышь.

Затем щелкните, чтобы увидеть метеонаблюдения и метеопрогнозы.

Управление картой: чтобы увеличить масштаб, щелкните зеленые кнопки с черным крестиком; чтобы уменьшить масштаб, щелкните зеленую кнопку с тире; для просмотра соседних карт щелкайте зеленые стрелки.


METAR-TAF: